LIT - Bill And Hillary Clinton Ntl/Adams Fld

Pirep is a free, collaborative database of all public and private airports located within the United States. All pilots are welcome to contribute, edit, and improve any airport they have local knowledge about, no registration required.
Are you familiar with this airport? Help out other pilots by adding your local knowledge.
Uploaded photos will be licensed under a CC BY-SA 4.0 license. Please only upload photos you have the rights to use.
Tags
Public
Undocu­mented
METAR / TAF
Edit Tags
Food
Camping
Lodging
Car Rental
Bicycles
Swimming
Golfing
Fishing
Hot Springs
Museum
Flying Clubs
Airpark
Upcoming Events
No upcoming events. Is anything happening here soon?
*
*
*

Where exactly on/near the airport is this event taking place?

Is there a webpage with more information for this event?

Who should be contacted for more information?

What is this event all about?

Repeat every
Description
Transient Parking
Fuel Location
Landing & Tie-down Fees
Crew Car Availability
Flying Clubs
WiFi Access
Airport Statistics
Location: Little Rock, AR
Elevation: 266ft
Sectional: Memphis
Activation date: Apr 1940
Fuel: 100LL, A (prices)
Runway 04L/22R: 8,273ft
Runway 04R/22L: 8,251ft
Runway 18/36: 6,224ft
Access: Open to the public
Current Weather — VFR
  • Weather data is strictly informational and not for flight planning purposes.
  • METAR
    2024-02-25 14:53:00 CST
    Ceiling Wind Temperature Dewpoint Weather Visbility
    Sky clear 220° @ 16kt, gusts 26kt 80°F 41°F Smoke 10SM
    Clouds: Few @ 25,000ft
    Raw: KLIT 252053Z 22016G26KT 10SM FU FEW250 27/05 A2985 RMK AO2 PK WND 25028/2003 SLP110 T02670050 56031
  • TAF
    2024-02-25 12:00:00 CST – 2024-02-25 14:00:00 CST
    Ceiling Wind Weather Visbility
    Sky clear 250° @ 19kt, gusts 32kt N/A 6SM
    Clouds: Scattered @ 25,000ft
    Raw: KLIT 251730Z 2518/2618 25019G32KT P6SM SCT250 FM252000 21012G20KT P6SM FEW250 FM260000 19006KT P6SM SKC FM261100 20005KT P6SM SCT015
  • TAF
    2024-02-25 14:00:00 CST – 2024-02-25 18:00:00 CST
    Ceiling Wind Weather Visbility
    Sky clear 210° @ 12kt, gusts 20kt N/A 6SM
    Clouds: Few @ 25,000ft
    Raw: KLIT 251730Z 2518/2618 25019G32KT P6SM SCT250 FM252000 21012G20KT P6SM FEW250 FM260000 19006KT P6SM SKC FM261100 20005KT P6SM SCT015
  • TAF
    2024-02-25 18:00:00 CST – 2024-02-26 05:00:00 CST
    Ceiling Wind Weather Visbility
    Sky clear 190° @ 6kt N/A 6SM
    Clouds: @ ft
    Raw: KLIT 251730Z 2518/2618 25019G32KT P6SM SCT250 FM252000 21012G20KT P6SM FEW250 FM260000 19006KT P6SM SKC FM261100 20005KT P6SM SCT015
  • TAF
    2024-02-26 05:00:00 CST – 2024-02-26 12:00:00 CST
    Ceiling Wind Weather Visbility
    Sky clear 200° @ 5kt N/A 6SM
    Clouds: Scattered @ 1,500ft
    Raw: KLIT 251730Z 2518/2618 25019G32KT P6SM SCT250 FM252000 21012G20KT P6SM FEW250 FM260000 19006KT P6SM SKC FM261100 20005KT P6SM SCT015
Click/tap to add an annotation marker to the map
Airport Webcams
No webcams added yet.
Direct links to live image URLs will be displayed inline on this page. URLs to separate webpages will be linked to.
URL:
Direct links to live image URLs will be displayed inline on this page. URLs to separate webpages will be linked to.
URL:
Remarks
  • Large concentrations of birds invof arpt; most activity btn sr-ss up to 1500 ft msl.
  • Cargo & terminal ramps are non-movement areas.
  • No general aviation parking on terminal or cargo ramp.
  • Twy a 315 ft south of twy l intersection to ry 36 clsd except acft with wingspan less than 79 ft.
  • Be alert: north little rock muni airport is lctd 6 miles nnw with similar runway configurations.
Comments
Leave a comment What was your experience like at this airport?